SBPA/POA METAR and TAF weather

Enter ICAO airport designator
Station Type Date Time Source
SBPA METAR 2019/04/18 15:37 UTC NOAA

SBPA 181537Z 30004KT 260V360 9999 FEW010 22/17 Q1015


Station Type Date Time Source
SBPA Decoded METAR 2019/04/18 15:37 UTC NOAA

Porto Alegre Aero-Porto , Brazil (SBPA) 30-00S 051-11W 3M
Apr 18, 2019 - 11:37 AM EDT / 2019.04.18 1537 UTC
Wind: from the WNW (300 degrees) at 5 MPH (4 KT) (direction variable):0
Visibility: greater than 7 mile(s):0
Sky conditions: mostly clear
Temperature: 71 F (22 C)
Dew Point: 62 F (17 C)
Relative Humidity: 73%
Pressure (altimeter): 29.97 in. Hg (1015 hPa)
ob: SBPA 181537Z 30004KT 260V360 9999 FEW010 22/17 Q1015
cycle: 15

Station Type Date Time Source
SBPA TAF 2019/04/18 12:45 UTC NOAA

TAF SBPA 180900Z 1812/1912 27006KT 8000 BKN010 TX26/1818Z TN16/1908Z
BECMG 1812/1814 9999 NSW BKN020
BECMG 1814/1816 SCT030
BECMG 1820/1822 12006KT CAVOK
RMK PDW

Example: see airport list